Time;durP1;ratioP1;P1;durP2;ratioP2;P2;SDS_P1;SDS_P2;PMS_P1;PMS_P2;Temp;Humidity;BMP_temperature;BMP_pressure;BME280_temperature;BME280_humidity;BME280_pressure;Samples;Min_cycle;Max_cycle;Signal;HPM_P1;HPM_P2
2021/10/06 00:01:25;;;;;;;8.08;5.42;;;;;;;18.53;40.64;102876.39;1776225;80;21017;-50
2021/10/06 00:03:52;;;;;;;10.70;5.78;;;;;;;18.50;40.11;102865.93;1768033;80;21537;-49
2021/10/06 00:06:19;;;;;;;10.75;5.83;;;;;;;18.50;40.09;102860.66;1771325;79;21021;-50
2021/10/06 00:08:46;;;;;;;9.03;5.00;;;;;;;18.48;40.26;102859.38;1772915;80;21064;-47
2021/10/06 00:11:13;;;;;;;12.07;5.83;;;;;;;18.46;40.51;102859.86;1773302;80;21045;-49
2021/10/06 00:13:39;;;;;;;11.97;5.83;;;;;;;18.45;40.69;102859.88;1773185;80;20950;-49
2021/10/06 00:16:09;;;;;;;10.00;5.65;;;;;;;18.43;40.72;102848.45;1774111;80;21040;-47
2021/10/06 00:18:36;;;;;;;11.70;5.08;;;;;;;18.42;40.91;102850.70;1770031;80;21025;-49
2021/10/06 00:21:03;;;;;;;13.95;5.00;;;;;;;18.40;40.20;102849.86;1771893;80;20974;-49
2021/10/06 00:23:32;;;;;;;11.35;4.97;;;;;;;18.37;40.07;102842.00;1772902;80;21022;-48
2021/10/06 00:26:00;;;;;;;9.05;4.97;;;;;;;18.36;40.14;102842.92;1781958;80;21037;-50
2021/10/06 00:28:27;;;;;;;17.15;5.30;;;;;;;18.33;40.46;102847.80;1771569;80;21029;-47
2021/10/06 00:30:55;;;;;;;8.48;5.17;;;;;;;18.32;40.70;102851.79;1770282;80;21008;-50
2021/10/06 00:33:21;;;;;;;16.60;5.95;;;;;;;18.29;40.27;102851.84;1770202;80;21497;-50
2021/10/06 00:35:48;;;;;;;13.03;5.50;;;;;;;18.28;40.47;102858.02;1778972;80;21043;-50
2021/10/06 00:38:16;;;;;;;11.33;5.42;;;;;;;18.26;40.78;102859.82;1771535;80;21529;-51
2021/10/06 00:40:42;;;;;;;19.37;5.58;;;;;;;18.24;40.98;102858.95;1771027;80;21084;-50
2021/10/06 00:43:09;;;;;;;8.73;4.95;;;;;;;18.23;41.08;102863.82;1770295;80;20969;-50
2021/10/06 00:45:35;;;;;;;17.77;5.72;;;;;;;18.20;40.74;102859.91;1785833;80;21013;-49
2021/10/06 00:48:02;;;;;;;10.45;4.80;;;;;;;18.18;41.03;102859.08;1777493;80;20994;-50
2021/10/06 00:50:28;;;;;;;9.98;5.10;;;;;;;18.16;41.07;102856.92;1775718;80;21407;-50
2021/10/06 00:52:56;;;;;;;7.30;4.72;;;;;;;18.15;41.49;102860.47;1768410;80;21012;-47
2021/10/06 00:55:23;;;;;;;13.03;4.62;;;;;;;18.12;41.74;102863.16;1772209;80;21379;-50
2021/10/06 00:57:50;;;;;;;7.40;3.83;;;;;;;18.13;41.71;102859.64;1778672;80;21036;-50
2021/10/06 01:00:16;;;;;;;11.28;4.05;;;;;;;18.11;41.74;102850.89;1774292;80;21018;-50
2021/10/06 01:02:43;;;;;;;12.40;3.95;;;;;;;18.11;41.66;102847.82;1774263;80;20982;-50
2021/10/06 01:05:10;;;;;;;11.65;5.50;;;;;;;18.10;41.56;102843.87;1772251;80;21097;-49
2021/10/06 01:07:38;;;;;;;10.45;4.58;;;;;;;18.10;41.41;102840.80;1770983;80;21056;-50
2021/10/06 01:10:08;;;;;;;12.40;4.40;;;;;;;18.09;41.17;102836.89;1772147;80;22500;-49
2021/10/06 01:12:35;;;;;;;9.75;5.10;;;;;;;18.09;41.44;102831.17;1774584;80;21513;-50
2021/10/06 01:15:04;;;;;;;11.38;5.50;;;;;;;18.09;41.57;102835.56;1772997;80;20990;-48
2021/10/06 01:17:32;;;;;;;9.10;5.60;;;;;;;18.08;41.93;102839.96;1771437;80;20954;-49
2021/10/06 01:19:58;;;;;;;10.58;5.25;;;;;;;18.06;42.02;102835.61;1773219;80;20997;-49
2021/10/06 01:22:25;;;;;;;8.60;5.47;;;;;;;18.04;42.41;102836.09;1787643;80;21500;-49
2021/10/06 01:24:51;;;;;;;8.88;5.40;;;;;;;18.03;42.88;102843.59;1772016;80;21021;-49
2021/10/06 01:27:18;;;;;;;5.25;4.25;;;;;;;18.00;42.36;102843.20;1771382;80;21032;-50
2021/10/06 01:29:44;;;;;;;9.03;4.87;;;;;;;18.00;42.37;102848.91;1772015;80;21541;-47
2021/10/06 01:32:13;;;;;;;8.60;5.10;;;;;;;18.01;42.56;102842.76;1786684;80;21124;-49
2021/10/06 01:34:41;;;;;;;11.38;5.50;;;;;;;17.99;42.71;102836.17;1773343;80;21060;-50
2021/10/06 01:37:08;;;;;;;7.53;4.50;;;;;;;18.00;42.78;102841.00;1772457;80;21002;-50
2021/10/06 01:39:36;;;;;;;6.70;5.37;;;;;;;17.98;42.71;102834.90;1776293;80;21053;-49
2021/10/06 01:42:03;;;;;;;8.65;5.10;;;;;;;17.96;42.79;102848.11;1768753;80;20961;-50
2021/10/06 01:44:30;;;;;;;11.80;5.22;;;;;;;17.93;43.26;102848.15;1773244;80;21009;-49
2021/10/06 01:46:57;;;;;;;10.18;4.85;;;;;;;17.92;43.43;102841.60;1775986;80;21030;-48
2021/10/06 01:49:24;;;;;;;16.20;5.58;;;;;;;17.91;43.50;102851.73;1774250;80;21048;-50
2021/10/06 01:51:51;;;;;;;9.60;4.80;;;;;;;17.89;43.59;102849.98;1774145;80;21014;-50
2021/10/06 01:54:17;;;;;;;12.13;5.40;;;;;;;17.88;44.15;102847.39;1770461;80;21057;-49
2021/10/06 01:56:44;;;;;;;14.83;5.75;;;;;;;17.85;44.60;102852.26;1766481;80;21108;-50
2021/10/06 01:59:11;;;;;;;9.83;4.53;;;;;;;17.83;44.51;102846.16;1768405;80;21033;-47
2021/10/06 02:01:38;;;;;;;6.50;3.35;;;;;;;17.82;44.46;102844.44;1766605;80;21010;-51
2021/10/06 02:04:05;;;;;;;12.28;4.50;;;;;;;17.81;44.39;102849.27;1771148;80;20979;-47
2021/10/06 02:06:34;;;;;;;9.80;4.92;;;;;;;17.80;44.48;102838.77;1763659;80;21010;-49
2021/10/06 02:09:00;;;;;;;8.45;4.95;;;;;;;17.78;44.72;102849.78;1767143;80;21485;-47
2021/10/06 02:11:27;;;;;;;8.90;4.33;;;;;;;17.77;44.69;102848.90;1768534;80;20985;-50
2021/10/06 02:13:54;;;;;;;5.80;4.37;;;;;;;17.76;44.65;102851.09;1769105;80;21012;-49
2021/10/06 02:16:20;;;;;;;14.50;5.30;;;;;;;17.74;44.70;102843.67;1772834;80;21038;-49
2021/10/06 02:18:47;;;;;;;6.62;4.25;;;;;;;17.73;45.20;102840.64;1768758;80;21025;-49
2021/10/06 02:21:14;;;;;;;7.28;4.00;;;;;;;17.72;45.27;102845.47;1767581;80;21497;-49
2021/10/06 02:23:40;;;;;;;8.73;4.42;;;;;;;17.74;45.35;102844.15;1769948;80;20958;-49
2021/10/06 02:26:07;;;;;;;9.60;4.67;;;;;;;17.73;45.09;102840.64;1768731;80;21017;-53
2021/10/06 02:28:34;;;;;;;9.03;4.60;;;;;;;17.72;44.90;102838.89;1768859;80;20990;-50
2021/10/06 02:31:00;;;;;;;8.68;4.67;;;;;;;17.72;44.98;102848.10;1769243;80;21000;-49
2021/10/06 02:33:27;;;;;;;9.88;5.08;;;;;;;17.72;45.14;102857.79;1767276;80;21517;-48
2021/10/06 02:35:54;;;;;;;17.98;6.12;;;;;;;17.71;45.41;102862.18;1765979;80;20982;-47
2021/10/06 02:38:20;;;;;;;12.55;5.05;;;;;;;17.71;45.40;102864.81;1765581;80;21010;-50
2021/10/06 02:40:47;;;;;;;9.78;4.75;;;;;;;17.71;45.62;102862.62;1768415;80;21057;-49
2021/10/06 02:43:14;;;;;;;13.58;6.05;;;;;;;17.70;45.82;102872.27;1767747;80;20962;-50
2021/10/06 02:45:41;;;;;;;9.78;5.80;;;;;;;17.70;46.09;102873.59;1766358;80;21450;-47
2021/10/06 02:48:08;;;;;;;13.08;5.20;;;;;;;17.69;46.04;102878.45;1765876;80;20981;-50
2021/10/06 02:50:35;;;;;;;8.23;5.30;;;;;;;17.68;46.23;102877.17;1766193;80;21013;-49
2021/10/06 02:53:02;;;;;;;10.32;5.53;;;;;;;17.68;46.18;102879.33;1769277;80;21004;-47
2021/10/06 02:55:28;;;;;;;10.93;5.78;;;;;;;17.68;46.38;102878.02;1768457;80;21088;-49
2021/10/06 02:57:55;;;;;;;9.13;4.83;;;;;;;17.65;46.66;102879.41;1769468;80;21028;-49
2021/10/06 03:00:22;;;;;;;9.50;5.37;;;;;;;17.65;46.60;102880.72;1768945;80;21506;-50
2021/10/06 03:02:49;;;;;;;7.12;4.67;;;;;;;17.65;46.63;102882.04;1767714;80;21057;-49
2021/10/06 03:05:15;;;;;;;7.00;4.78;;;;;;;17.66;46.44;102881.59;1765639;80;21017;-47
2021/10/06 03:07:42;;;;;;;12.37;5.37;;;;;;;17.65;45.96;102889.94;1765785;80;21029;-50
2021/10/06 03:10:10;;;;;;;12.90;5.53;;;;;;;17.65;45.88;102892.57;1768439;80;20982;-50
2021/10/06 03:12:38;;;;;;;8.28;5.20;;;;;;;17.67;46.11;102893.41;1768108;80;20990;-50
2021/10/06 03:15:06;;;;;;;9.93;5.33;;;;;;;17.65;46.13;102894.33;1769017;80;20962;-46
2021/10/06 03:17:33;;;;;;;9.80;4.90;;;;;;;17.65;46.18;102893.01;1766112;80;20961;-49
2021/10/06 03:19:59;;;;;;;11.60;5.70;;;;;;;17.63;46.46;102896.99;1767942;80;21008;-50
2021/10/06 03:22:26;;;;;;;11.70;5.30;;;;;;;17.64;46.38;102901.82;1769123;80;21500;-47
2021/10/06 03:24:54;;;;;;;9.08;5.08;;;;;;;17.63;46.29;102896.12;1769214;80;21077;-50
2021/10/06 03:27:20;;;;;;;13.10;5.45;;;;;;;17.62;46.43;102900.50;1768895;80;20974;-49
2021/10/06 03:29:47;;;;;;;10.90;5.50;;;;;;;17.59;46.60;102900.58;1769174;80;21035;-47
2021/10/06 03:32:13;;;;;;;9.98;5.50;;;;;;;17.57;46.70;102889.20;1767120;80;21034;-49
2021/10/06 03:34:42;;;;;;;14.25;5.72;;;;;;;17.57;46.73;102890.52;1765876;80;21057;-47
2021/10/06 03:37:08;;;;;;;13.05;5.30;;;;;;;17.55;46.85;102892.31;1766291;80;21029;-50
2021/10/06 03:39:36;;;;;;;9.03;4.92;;;;;;;17.55;46.95;102903.28;1770012;80;21494;-50
2021/10/06 03:42:03;;;;;;;11.40;5.10;;;;;;;17.54;47.05;102901.08;1774048;80;20982;-50
2021/10/06 03:44:29;;;;;;;13.78;5.45;;;;;;;17.55;46.79;102901.52;1771990;80;21008;-50
2021/10/06 03:46:56;;;;;;;15.40;6.50;;;;;;;17.55;46.63;102899.33;1756050;80;20990;-50
2021/10/06 03:49:22;;;;;;;8.05;5.28;;;;;;;17.56;46.74;102908.51;1767683;80;20985;-49
2021/10/06 03:51:49;;;;;;;13.10;4.78;;;;;;;17.56;46.70;102901.92;1767926;80;21002;-50
2021/10/06 03:54:15;;;;;;;9.30;5.10;;;;;;;17.59;46.72;102901.89;1766982;80;20963;-49
2021/10/06 03:56:42;;;;;;;11.57;5.37;;;;;;;17.61;46.83;102892.64;1781044;80;21037;-49
2021/10/06 03:59:09;;;;;;;7.92;4.80;;;;;;;17.61;46.77;102893.52;1768242;80;21561;-50
2021/10/06 04:01:35;;;;;;;12.90;5.20;;;;;;;17.60;46.65;102883.86;1767142;80;21025;-50
2021/10/06 04:04:02;;;;;;;16.77;5.60;;;;;;;17.59;46.36;102886.53;1766008;80;21481;-49
2021/10/06 04:06:29;;;;;;;10.63;4.40;;;;;;;17.58;46.28;102892.68;1765604;80;21053;-49
2021/10/06 04:08:55;;;;;;;14.93;4.85;;;;;;;17.58;46.50;102891.36;1768219;80;20977;-50
2021/10/06 04:11:22;;;;;;;10.50;5.35;;;;;;;17.55;46.70;102888.36;1769180;80;21502;-49
2021/10/06 04:13:49;;;;;;;15.05;5.10;;;;;;;17.56;46.98;102890.08;1768933;80;21010;-49
2021/10/06 04:16:16;;;;;;;16.55;5.72;;;;;;;17.57;47.35;102890.95;1776241;80;21470;-49
2021/10/06 04:18:42;;;;;;;7.65;4.70;;;;;;;17.59;47.24;102893.99;1765762;80;21001;-49
2021/10/06 04:21:09;;;;;;;8.75;4.60;;;;;;;17.62;47.26;102887.81;1766004;80;21500;-50
2021/10/06 04:23:36;;;;;;;10.60;4.97;;;;;;;17.63;46.91;102882.95;1767815;80;21486;-49
2021/10/06 04:26:03;;;;;;;13.88;5.17;;;;;;;17.66;47.05;102888.18;1776174;80;20963;-50
2021/10/06 04:28:31;;;;;;;10.15;4.95;;;;;;;17.67;46.62;102885.52;1768272;80;21010;-47
2021/10/06 04:30:59;;;;;;;11.85;5.12;;;;;;;17.71;46.61;102885.00;1765998;80;21501;-50
2021/10/06 04:33:26;;;;;;;15.65;5.15;;;;;;;17.72;46.18;102894.66;1765979;80;21517;-47
2021/10/06 04:35:53;;;;;;;10.18;4.75;;;;;;;17.72;46.09;102887.59;1768415;80;21108;-50
2021/10/06 04:38:19;;;;;;;9.80;4.70;;;;;;;17.72;46.06;102886.28;1767059;80;21057;-50
2021/10/06 04:40:46;;;;;;;9.83;4.80;;;;;;;17.74;45.66;102877.91;1767038;80;20979;-49
2021/10/06 04:43:13;;;;;;;7.55;4.33;;;;;;;17.75;45.97;102874.84;1765791;80;21008;-50
2021/10/06 04:45:39;;;;;;;12.88;4.47;;;;;;;17.75;45.37;102878.34;1781868;80;21124;-50
2021/10/06 04:48:06;;;;;;;7.33;3.80;;;;;;;17.76;45.60;102880.06;1714390;83;21507;-47
2021/10/06 04:50:33;;;;;;;8.95;4.42;;;;;;;17.75;45.41;102875.71;1703497;83;21030;-50
2021/10/06 04:53:00;;;;;;;11.15;4.10;;;;;;;17.76;45.38;102880.53;1701027;83;21015;-49
2021/10/06 04:55:27;;;;;;;16.97;4.80;;;;;;;17.76;45.50;102880.06;1726695;82;21043;-48
2021/10/06 04:57:54;;;;;;;11.65;4.47;;;;;;;17.75;45.31;102875.71;1697286;83;21054;-50
2021/10/06 05:00:22;;;;;;;14.40;4.58;;;;;;;17.76;45.50;102877.43;1714179;84;21037;-47
2021/10/06 05:02:49;;;;;;;10.85;5.10;;;;;;;17.77;45.44;102871.72;1700818;84;21042;-49
2021/10/06 05:05:15;;;;;;;14.33;5.08;;;;;;;17.75;45.54;102877.03;1700759;83;21046;-47
2021/10/06 05:07:42;;;;;;;11.43;4.55;;;;;;;17.74;45.35;102877.91;1701035;83;21034;-49
2021/10/06 05:10:10;;;;;;;10.08;4.90;;;;;;;17.76;45.35;102881.38;1703410;83;21101;-49
2021/10/06 05:12:36;;;;;;;9.93;4.15;;;;;;;17.76;45.37;102885.33;1714705;83;20974;-46
2021/10/06 05:15:04;;;;;;;11.00;4.15;;;;;;;17.78;45.22;102880.91;1701220;83;20999;-50
2021/10/06 05:17:32;;;;;;;6.58;3.83;;;;;;;17.81;45.19;102885.26;1702578;83;21015;-49
2021/10/06 05:19:58;;;;;;;7.97;3.62;;;;;;;17.82;45.04;102873.84;1714383;84;21009;-50
2021/10/06 05:22:24;;;;;;;13.00;4.28;;;;;;;17.87;44.62;102882.51;1704626;83;21023;-50
2021/10/06 05:24:52;;;;;;;13.55;4.83;;;;;;;17.89;44.20;102878.95;1714158;84;21030;-49
2021/10/06 05:27:18;;;;;;;9.43;4.08;;;;;;;17.93;44.24;102885.50;1704394;83;21027;-50
2021/10/06 05:29:45;;;;;;;15.95;4.65;;;;;;;17.93;44.12;102894.25;1714239;84;21093;-47
2021/10/06 05:32:11;;;;;;;6.92;4.00;;;;;;;17.97;44.04;102887.18;1705940;83;21071;-47
2021/10/06 05:34:38;;;;;;;13.88;5.10;;;;;;;18.00;44.13;102895.01;1714408;84;21057;-50
2021/10/06 05:37:05;;;;;;;15.10;5.37;;;;;;;18.02;44.60;102894.53;1706102;83;21043;-50
2021/10/06 05:39:32;;;;;;;11.15;4.60;;;;;;;18.02;44.73;102886.63;1714121;84;21054;-47
2021/10/06 05:41:59;;;;;;;11.08;4.70;;;;;;;18.04;44.88;102879.56;1716735;83;21054;-49
2021/10/06 05:44:25;;;;;;;9.50;4.53;;;;;;;18.07;44.88;102883.03;1714505;83;21014;-47
2021/10/06 05:46:52;;;;;;;11.03;4.58;;;;;;;18.08;44.55;102886.06;1704214;83;21013;-50
2021/10/06 05:49:19;;;;;;;10.55;4.58;;;;;;;18.10;44.61;102883.39;1714338;83;21038;-50
2021/10/06 05:51:45;;;;;;;13.85;4.80;;;;;;;18.09;44.39;102881.67;1703727;83;21082;-47
2021/10/06 05:54:13;;;;;;;10.88;5.40;;;;;;;18.10;44.61;102889.98;1714467;84;21053;-50
2021/10/06 05:56:40;;;;;;;15.05;4.70;;;;;;;18.10;44.38;102889.98;1695078;83;21089;-52
2021/10/06 05:59:06;;;;;;;10.88;4.85;;;;;;;18.11;44.33;102888.66;1744212;81;21018;-50
2021/10/06 06:01:33;;;;;;;14.18;5.70;;;;;;;18.13;44.52;102892.58;1704966;83;21005;-50
2021/10/06 06:04:00;;;;;;;12.50;4.90;;;;;;;18.16;44.46;102896.45;1742799;81;21503;-50
2021/10/06 06:06:28;;;;;;;8.18;4.28;;;;;;;18.19;44.54;102896.41;1707762;83;21021;-52
2021/10/06 06:08:54;;;;;;;18.70;6.47;;;;;;;18.20;44.31;102892.41;1745829;81;21059;-47
2021/10/06 06:11:22;;;;;;;12.78;4.55;;;;;;;18.25;44.39;102900.23;1752215;81;20968;-50
2021/10/06 06:13:50;;;;;;;12.58;5.00;;;;;;;18.30;44.15;102898.39;1705388;83;21037;-49
2021/10/06 06:16:16;;;;;;;12.60;5.03;;;;;;;18.31;44.06;102901.43;1745030;81;21028;-50
2021/10/06 06:18:43;;;;;;;10.32;4.65;;;;;;;18.33;44.01;102899.63;1745281;81;21026;-49
2021/10/06 06:21:10;;;;;;;11.65;4.58;;;;;;;18.34;43.80;102900.06;1706418;83;21498;-49
2021/10/06 06:23:37;;;;;;;10.20;4.83;;;;;;;18.35;44.07;102897.39;1743285;81;21051;-50
2021/10/06 06:26:05;;;;;;;16.75;5.25;;;;;;;18.38;43.98;102905.70;1705163;83;21037;-49
2021/10/06 06:28:32;;;;;;;13.15;5.10;;;;;;;18.41;44.31;102904.30;1744647;81;20992;-50
2021/10/06 06:30:58;;;;;;;11.45;5.10;;;;;;;18.46;44.30;102902.05;1746820;81;20980;-50
2021/10/06 06:33:25;;;;;;;14.43;4.70;;;;;;;18.51;43.76;102900.61;1746127;81;20999;-49
2021/10/06 06:35:52;;;;;;;13.32;5.78;;;;;;;18.53;43.72;102908.03;1746085;81;21065;-49
2021/10/06 06:38:18;;;;;;;11.53;4.47;;;;;;;18.55;44.28;102902.27;1746800;81;20974;-50
2021/10/06 06:40:45;;;;;;;14.63;5.28;;;;;;;18.60;44.22;102913.16;1743922;81;21049;-48
2021/10/06 06:43:12;;;;;;;14.15;4.85;;;;;;;18.69;44.24;102913.43;1705332;83;21536;-50
2021/10/06 06:45:39;;;;;;;14.23;5.15;;;;;;;18.77;43.82;102909.30;1745689;81;21013;-50
2021/10/06 06:48:06;;;;;;;7.55;4.47;;;;;;;18.86;43.68;102900.72;1744806;81;21530;-48
2021/10/06 06:50:33;;;;;;;17.90;4.50;;;;;;;18.94;43.14;102911.97;1746083;81;21033;-50
2021/10/06 06:53:00;;;;;;;13.20;4.87;;;;;;;19.01;42.79;102909.62;1708881;83;20997;-50
2021/10/06 06:55:27;;;;;;;15.23;4.47;;;;;;;19.06;42.43;102907.73;1700408;83;21494;-47
2021/10/06 06:57:54;;;;;;;9.35;4.22;;;;;;;19.08;42.63;102908.56;1703745;83;21094;-48
2021/10/06 07:00:21;;;;;;;15.80;5.10;;;;;;;19.11;42.57;102910.27;1714136;83;21066;-48
2021/10/06 07:02:48;;;;;;;10.70;4.78;;;;;;;19.11;42.92;102909.83;1700630;84;21475;-50
2021/10/06 07:05:14;;;;;;;14.47;4.45;;;;;;;19.09;42.96;102920.87;1700955;83;21067;-47
2021/10/06 07:07:43;;;;;;;11.43;4.75;;;;;;;19.08;43.03;102915.16;1730691;82;21499;-49
2021/10/06 07:10:10;;;;;;;16.93;5.00;;;;;;;19.09;43.09;102910.75;1730477;82;21518;-50
2021/10/06 07:12:38;;;;;;;10.48;4.33;;;;;;;19.10;42.74;102909.87;1702188;83;21074;-49
2021/10/06 07:15:06;;;;;;;17.73;4.45;;;;;;;19.11;42.71;102922.14;1714330;84;21042;-49
2021/10/06 07:17:33;;;;;;;13.72;4.40;;;;;;;19.12;42.75;102926.53;1730148;82;21494;-49
2021/10/06 07:20:02;;;;;;;12.82;4.55;;;;;;;19.13;42.47;102926.48;1703956;83;20947;-47
2021/10/06 07:22:28;;;;;;;9.55;4.47;;;;;;;19.13;42.68;102929.13;1714119;84;21030;-49
2021/10/06 07:24:55;;;;;;;10.65;3.98;;;;;;;19.14;42.42;102930.88;1706959;83;21027;-50
2021/10/06 07:27:21;;;;;;;14.38;4.95;;;;;;;19.14;42.33;102939.24;1701393;83;21050;-49
2021/10/06 07:29:49;;;;;;;13.65;4.95;;;;;;;19.10;42.40;102938.42;1714258;83;20975;-49
2021/10/06 07:32:15;;;;;;;19.07;4.78;;;;;;;19.08;42.34;102941.55;1728246;82;21377;-51
2021/10/06 07:34:42;;;;;;;11.68;4.35;;;;;;;19.05;42.78;102931.08;1706576;83;21034;-51
2021/10/06 07:37:08;;;;;;;13.98;4.60;;;;;;;19.04;42.40;102928.00;1714190;83;21081;-49
2021/10/06 07:39:35;;;;;;;13.70;4.10;;;;;;;19.02;42.22;102931.13;1701668;83;21027;-49
2021/10/06 07:42:03;;;;;;;15.45;4.95;;;;;;;19.00;42.27;102925.02;1714230;83;21038;-51
2021/10/06 07:44:30;;;;;;;14.98;4.62;;;;;;;19.01;42.44;102937.33;1704095;83;21495;-47
2021/10/06 07:46:57;;;;;;;14.78;4.25;;;;;;;19.03;42.55;102924.97;1714161;84;21014;-49
2021/10/06 07:49:24;;;;;;;11.85;4.03;;;;;;;19.05;42.53;102932.39;1729597;82;21015;-50
2021/10/06 07:51:50;;;;;;;9.98;4.03;;;;;;;19.06;42.43;102930.16;1702634;83;21046;-48
2021/10/06 07:54:17;;;;;;;11.12;4.60;;;;;;;19.09;42.40;102935.37;1700529;83;21070;-48
2021/10/06 07:56:44;;;;;;;9.00;4.08;;;;;;;19.11;42.20;102937.98;1704154;83;21078;-47
2021/10/06 07:59:11;;;;;;;9.38;3.87;;;;;;;19.14;42.05;102932.64;1708254;83;21019;-51
2021/10/06 08:01:39;;;;;;;14.93;4.62;;;;;;;19.15;41.97;102935.23;1727803;82;21035;-50
2021/10/06 08:04:05;;;;;;;12.15;4.25;;;;;;;19.17;42.11;102933.44;1726676;82;21046;-49
2021/10/06 08:06:33;;;;;;;15.03;4.40;;;;;;;19.20;41.97;102929.42;1739932;82;21514;-50
2021/10/06 08:08:59;;;;;;;11.28;4.30;;;;;;;19.23;41.97;102928.01;1731130;82;21070;-50
2021/10/06 08:11:26;;;;;;;13.43;4.72;;;;;;;19.25;41.77;102932.80;1731850;82;21007;-50
2021/10/06 08:13:55;;;;;;;9.83;3.70;;;;;;;19.26;41.72;102941.59;1704176;83;21055;-49
2021/10/06 08:16:22;;;;;;;14.35;4.58;;;;;;;19.26;41.55;102941.16;1714471;84;21514;-48
2021/10/06 08:18:49;;;;;;;7.65;4.00;;;;;;;19.28;41.57;102934.06;1701001;83;21027;-49
2021/10/06 08:21:16;;;;;;;11.63;4.80;;;;;;;19.29;41.46;102941.06;1701234;83;22043;-50
2021/10/06 08:23:42;;;;;;;9.40;4.65;;;;;;;19.31;41.53;102939.25;1702841;83;21045;-51
2021/10/06 08:26:10;;;;;;;10.38;4.22;;;;;;;19.33;41.28;102934.84;1714449;84;21018;-49
2021/10/06 08:28:37;;;;;;;11.70;4.53;;;;;;;19.35;41.51;102940.95;1705567;83;20995;-49
2021/10/06 08:31:03;;;;;;;12.60;4.50;;;;;;;19.38;41.42;102943.53;1714533;83;21089;-50
2021/10/06 08:33:30;;;;;;;11.22;4.47;;;;;;;19.41;41.52;102938.16;1701028;83;21051;-50
2021/10/06 08:35:57;;;;;;;10.08;4.12;;;;;;;19.43;41.54;102941.63;1711858;83;21095;-53
2021/10/06 08:38:23;;;;;;;12.80;4.30;;;;;;;19.47;41.51;102943.30;1714363;84;20975;-50
2021/10/06 08:40:50;;;;;;;9.15;4.37;;;;;;;19.48;41.22;102929.20;1707489;83;21079;-48
2021/10/06 08:43:17;;;;;;;8.90;3.50;;;;;;;19.48;40.96;102930.52;1726744;82;21007;-48
2021/10/06 08:45:44;;;;;;;15.53;4.33;;;;;;;19.48;41.04;102933.16;1728397;82;21050;-51
2021/10/06 08:48:12;;;;;;;12.18;4.97;;;;;;;19.47;41.08;102926.13;1714145;83;21013;-53
2021/10/06 08:50:39;;;;;;;9.70;3.77;;;;;;;19.48;40.96;102929.20;1702145;83;21027;-48
2021/10/06 08:53:06;;;;;;;12.10;4.17;;;;;;;19.50;40.94;102927.84;1726592;82;21025;-48
2021/10/06 08:55:34;;;;;;;10.75;3.85;;;;;;;19.49;40.65;102926.96;1726438;82;21038;-51
2021/10/06 08:58:03;;;;;;;12.13;4.45;;;;;;;19.51;40.75;102928.71;1734158;82;21609;-50
2021/10/06 09:00:52;;;;;;;9.33;3.87;;;;;;;19.52;40.70;102921.19;1701575;84;21026;-50
2021/10/06 09:03:26;;;;;;;9.55;3.58;;;;;;;19.53;40.95;102925.58;1719432;83;21002;-50
2021/10/06 09:06:10;;;;;;;14.15;4.62;;;;;;;19.54;40.67;102923.38;1645123;85;21127;-50
2021/10/06 09:08:38;;;;;;;13.50;5.00;;;;;;;19.58;40.42;102926.34;1691785;83;21592;-49
2021/10/06 09:11:07;;;;;;;7.92;3.92;;;;;;;19.61;40.20;102930.22;1691236;83;21100;-51
2021/10/06 09:13:36;;;;;;;12.95;4.33;;;;;;;19.65;40.08;102928.79;1692449;83;21513;-51
2021/10/06 09:16:05;;;;;;;12.18;5.15;;;;;;;19.68;39.84;102926.05;1693960;83;21106;-51
2021/10/06 09:18:34;;;;;;;11.05;5.30;;;;;;;19.72;40.35;102924.22;1694177;83;21001;-49
2021/10/06 09:21:03;;;;;;;16.45;5.47;;;;;;;19.74;40.33;102919.77;1694190;83;21027;-48
2021/10/06 09:23:30;;;;;;;11.45;4.62;;;;;;;19.76;40.28;102920.59;1693968;83;21013;-49
2021/10/06 09:26:02;;;;;;;6.58;4.08;;;;;;;19.78;40.26;102922.30;1694069;83;21020;-50
2021/10/06 09:28:42;;;;;;;11.65;3.92;;;;;;;19.81;39.88;102923.52;1691225;83;21000;-48
2021/10/06 09:31:16;;;;;;;10.30;3.98;;;;;;;19.84;39.84;102919.94;1695334;84;21513;-49
2021/10/06 09:33:55;;;;;;;9.80;3.80;;;;;;;19.86;39.74;102921.64;1700337;83;20961;-51
2021/10/06 09:36:30;;;;;;;6.87;3.85;;;;;;;19.90;39.82;102923.75;1694302;83;21060;-48
2021/10/06 09:39:04;;;;;;;12.28;3.87;;;;;;;19.91;39.05;102920.17;1694117;83;20972;-48
2021/10/06 09:41:44;;;;;;;14.53;3.72;;;;;;;19.92;39.06;102924.57;1693647;83;21493;-47
2021/10/06 09:44:17;;;;;;;6.15;3.85;;;;;;;19.94;39.22;102924.08;1694413;83;21030;-48
2021/10/06 09:46:59;;;;;;;9.38;3.20;;;;;;;19.97;38.89;102926.66;1626248;87;21134;-50
2021/10/06 09:49:38;;;;;;;7.70;2.92;;;;;;;20.01;39.09;102924.34;1626100;87;21104;-50
2021/10/06 09:52:25;;;;;;;12.80;3.95;;;;;;;20.05;38.95;102925.99;1556810;92;21097;-48
2021/10/06 09:54:58;;;;;;;10.03;3.58;;;;;;;20.06;38.66;102930.35;1557840;92;21078;-49
2021/10/06 09:57:35;;;;;;;13.25;3.67;;;;;;;20.08;38.63;102930.73;1545702;91;21108;-48
2021/10/06 10:00:13;;;;;;;7.12;3.55;;;;;;;20.10;38.55;102927.59;1541349;92;21613;-50
2021/10/06 10:02:42;;;;;;;7.70;3.20;;;;;;;20.14;38.33;102921.77;1540777;91;21069;-48
2021/10/06 10:05:10;;;;;;;15.83;4.33;;;;;;;20.16;38.18;102926.55;1556814;91;21560;-48
2021/10/06 10:07:37;;;;;;;13.98;3.37;;;;;;;20.17;38.35;102921.69;1556405;91;21104;-47
2021/10/06 10:10:06;;;;;;;9.15;3.87;;;;;;;20.20;38.43;102920.30;1554574;91;21082;-50
2021/10/06 10:12:33;;;;;;;12.60;3.02;;;;;;;20.21;38.18;102919.41;1553716;91;21577;-50
2021/10/06 10:15:02;;;;;;;7.75;3.08;;;;;;;20.22;37.82;102915.84;1556389;92;21090;-48
2021/10/06 10:17:29;;;;;;;11.20;3.55;;;;;;;20.23;37.93;102914.95;1556953;91;21132;-49
2021/10/06 10:19:58;;;;;;;9.45;3.15;;;;;;;20.24;37.68;102908.73;1555065;91;21622;-47
2021/10/06 10:22:28;;;;;;;6.58;2.77;;;;;;;20.25;37.32;102913.12;1549844;91;21094;-49
2021/10/06 10:24:55;;;;;;;12.75;3.15;;;;;;;20.27;36.53;102916.59;1554523;91;21519;-52
2021/10/06 10:27:23;;;;;;;11.22;2.83;;;;;;;20.29;36.10;102925.34;1556276;91;21099;-49
2021/10/06 10:30:05;;;;;;;13.20;3.65;;;;;;;20.32;36.28;102919.12;1553589;92;21066;-47
2021/10/06 10:32:45;;;;;;;10.03;2.98;;;;;;;20.33;36.03;102916.42;1556523;92;21058;-50
2021/10/06 10:35:14;;;;;;;15.00;2.87;;;;;;;20.34;36.02;102907.56;1530125;93;21742;-48
2021/10/06 10:37:55;;;;;;;6.65;3.35;;;;;;;20.35;36.05;102914.59;1534853;92;21064;-48
2021/10/06 10:40:43;;;;;;;7.43;2.83;;;;;;;20.39;36.11;102907.44;1533707;92;21118;-48
2021/10/06 10:43:20;;;;;;;9.08;2.90;;;;;;;20.41;35.78;102909.13;1545971;90;21048;-47
2021/10/06 10:48:58;;;;;;;8.40;2.70;;;;;;;20.42;34.98;102900.30;1596754;89;21072;-53
2021/10/06 10:51:48;;;;;;;11.30;4.17;;;;;;;20.42;35.68;102905.59;1529483;94;21095;-52
2021/10/06 10:54:40;;;;;;;11.63;3.70;;;;;;;20.42;36.35;102910.88;1531898;94;21046;-51
2021/10/06 10:57:28;;;;;;;13.50;3.42;;;;;;;20.45;36.57;102919.16;1520253;94;21648;-47
2021/10/06 10:59:57;;;;;;;11.28;3.85;;;;;;;20.44;36.27;102911.70;1493754;95;21650;-51
2021/10/06 11:02:34;;;;;;;10.85;3.40;;;;;;;20.42;36.08;102909.56;1447329;99;21226;-49
2021/10/06 11:05:04;;;;;;;5.87;3.25;;;;;;;20.41;36.32;102914.42;1442967;99;21154;-48
2021/10/06 11:07:32;;;;;;;10.32;3.00;;;;;;;20.42;35.87;102913.53;1447859;99;21624;-52
2021/10/06 11:10:00;;;;;;;11.68;3.60;;;;;;;20.43;35.80;102911.28;1447437;99;21680;-50
2021/10/06 11:12:30;;;;;;;12.43;3.72;;;;;;;20.45;35.70;102904.17;1447531;99;21639;-49
2021/10/06 11:15:16;;;;;;;5.53;2.70;;;;;;;20.45;35.36;102909.91;1425899;100;21658;-48
2021/10/06 11:18:15;;;;;;;8.13;3.10;;;;;;;20.45;35.04;102907.26;1424295;100;21701;-50
2021/10/06 11:20:58;;;;;;;7.42;3.22;;;;;;;20.42;35.09;102905.59;1423595;100;21160;-47
2021/10/06 11:23:39;;;;;;;10.40;4.00;;;;;;;20.42;35.28;102902.95;1423409;99;21161;-51
2021/10/06 11:26:13;;;;;;;12.47;3.70;;;;;;;20.42;35.74;102906.92;1423691;100;21147;-48
2021/10/06 11:28:44;;;;;;;5.40;2.40;;;;;;;20.45;35.68;102901.97;1415356;100;21115;-48